Time;durP1;ratioP1;P1;durP2;ratioP2;P2;SDS_P1;SDS_P2;PMS_P1;PMS_P2;Temp;Humidity;BMP_temperature;BMP_pressure;BME280_temperature;BME280_humidity;BME280_pressure;Samples;Min_cycle;Max_cycle;Signal;HPM_P1;HPM_P2
2023/05/15 00:00:55;;;;;;;;;;;19.80;69.70;;;;;;5084939;27;44460;-74
2023/05/15 00:03:21;;;;;;;;;;;19.70;69.60;;;;;;5094222;27;43024;-74
2023/05/15 00:05:46;;;;;;;;;;;19.80;70.10;;;;;;5097342;27;43290;-74
2023/05/15 00:08:12;;;;;;;;;;;19.60;69.60;;;;;;5093045;27;43219;-74
2023/05/15 00:10:37;;;;;;;;;;;19.50;69.60;;;;;;5102142;27;43619;-74
2023/05/15 00:13:03;;;;;;;;;;;19.60;70.10;;;;;;5074455;27;43045;-74
2023/05/15 00:15:28;;;;;;;;;;;19.60;70.00;;;;;;5095169;27;43572;-75
2023/05/15 00:17:54;;;;;;;;;;;19.50;69.50;;;;;;5092400;27;43187;-74
2023/05/15 00:20:19;;;;;;;;;;;19.60;70.20;;;;;;5097088;27;43463;-74
2023/05/15 00:22:45;;;;;;;;;;;19.60;70.10;;;;;;5074119;27;42921;-74
2023/05/15 00:25:10;;;;;;;;;;;19.70;70.30;;;;;;5092067;27;43126;-74
2023/05/15 00:27:36;;;;;;;;;;;19.60;69.80;;;;;;5117524;27;44017;-74
2023/05/15 00:30:01;;;;;;;;;;;19.70;70.30;;;;;;5089286;27;43389;-74
2023/05/15 00:32:27;;;;;;;;;;;19.60;70.20;;;;;;5085733;27;43055;-74
2023/05/15 00:34:52;;;;;;;;;;;19.50;69.80;;;;;;5087801;27;43067;-75
2023/05/15 00:37:18;;;;;;;;;;;19.50;70.00;;;;;;5105857;27;43281;-74
2023/05/15 00:39:43;;;;;;;;;;;19.60;70.00;;;;;;5090248;27;43070;-74
2023/05/15 00:42:09;;;;;;;;;;;19.60;70.20;;;;;;5086124;27;42895;-74
2023/05/15 00:44:35;;;;;;;;;;;19.60;70.50;;;;;;5086073;27;43460;-74
2023/05/15 00:47:01;;;;;;;;;;;19.60;70.30;;;;;;5095105;27;43205;-75
2023/05/15 00:49:28;;;;;;;;;;;19.60;70.40;;;;;;5092009;27;42985;-74
2023/05/15 00:51:55;;;;;;;;;;;19.70;70.60;;;;;;5105470;27;43115;-74
2023/05/15 00:54:20;;;;;;;;;;;19.70;70.80;;;;;;5102114;27;43563;-74
2023/05/15 00:56:46;;;;;;;;;;;19.50;70.80;;;;;;5086374;27;42958;-74
2023/05/15 00:59:12;;;;;;;;;;;19.70;71.00;;;;;;5086488;27;43618;-74
2023/05/15 01:01:38;;;;;;;;;;;19.60;71.30;;;;;;5085513;27;43261;-74
2023/05/15 01:04:03;;;;;;;;;;;19.50;71.00;;;;;;5089433;27;42976;-74
2023/05/15 01:06:29;;;;;;;;;;;19.60;71.50;;;;;;5105156;27;42966;-74
2023/05/15 01:08:55;;;;;;;;;;;19.60;71.60;;;;;;5104197;27;43508;-74
2023/05/15 01:11:23;;;;;;;;;;;19.60;71.30;;;;;;5105090;27;42985;-74
2023/05/15 01:13:48;;;;;;;;;;;19.60;71.80;;;;;;5088930;27;43025;-74
2023/05/15 01:16:14;;;;;;;;;;;19.50;71.70;;;;;;5085527;27;43204;-77
2023/05/15 01:18:39;;;;;;;;;;;19.80;72.10;;;;;;5083745;27;43429;-73
2023/05/15 01:21:06;;;;;;;;;;;19.60;72.20;;;;;;5085586;27;42935;-74
2023/05/15 01:23:46;;;;;;;;;;;19.60;71.70;;;;;;5088893;27;43407;-73
2023/05/15 01:26:30;;;;;;;;;;;19.70;69.80;;;;;;5114796;27;43086;-75
2023/05/15 01:29:14;;;;;;;;;;;19.60;72.20;;;;;;5085255;27;44142;-75
2023/05/15 01:31:41;;;;;;;;;;;19.60;70.00;;;;;;5088735;27;42920;-75
2023/05/15 01:34:08;;;;;;;;;;;19.60;72.70;;;;;;5094665;27;43390;-75
2023/05/15 01:36:37;;;;;;;;;;;19.60;72.20;;;;;;5085217;27;43071;-74
2023/05/15 01:39:04;;;;;;;;;;;19.80;70.40;;;;;;5096503;27;43155;-75
2023/05/15 01:41:41;;;;;;;;;;;19.70;72.30;;;;;;5087911;27;42920;-75
2023/05/15 01:44:09;;;;;;;;;;;19.70;72.40;;;;;;5085888;27;43655;-74
2023/05/15 01:46:37;;;;;;;;;;;19.60;72.90;;;;;;5084920;27;43092;-74
2023/05/15 01:49:02;;;;;;;;;;;19.60;72.80;;;;;;5084915;27;43655;-75
2023/05/15 01:51:29;;;;;;;;;;;19.70;72.90;;;;;;5084433;27;43169;-74
2023/05/15 01:53:57;;;;;;;;;;;19.70;73.20;;;;;;5098253;27;42868;-74
2023/05/15 01:56:23;;;;;;;;;;;19.60;73.30;;;;;;5084241;27;43159;-74
2023/05/15 01:58:49;;;;;;;;;;;19.70;73.30;;;;;;5096888;27;43537;-74
2023/05/15 02:01:14;;;;;;;;;;;19.60;73.10;;;;;;5085428;27;43236;-75
2023/05/15 02:03:41;;;;;;;;;;;19.70;73.30;;;;;;5097780;27;43623;-75
2023/05/15 02:06:07;;;;;;;;;;;19.60;72.90;;;;;;5091172;27;42949;-74
2023/05/15 02:08:33;;;;;;;;;;;19.60;73.60;;;;;;5095212;27;43246;-75
2023/05/15 02:11:02;;;;;;;;;;;19.50;74.20;;;;;;5101545;27;43025;-74
2023/05/15 02:13:27;;;;;;;;;;;19.60;74.10;;;;;;5101512;27;43711;-74
2023/05/15 02:15:53;;;;;;;;;;;19.60;74.30;;;;;;5093569;27;42856;-75
2023/05/15 02:18:18;;;;;;;;;;;19.80;74.60;;;;;;5093353;27;43031;-75
2023/05/15 02:20:44;;;;;;;;;;;23.20;76.10;;;;;;5088524;27;43576;-75
2023/05/15 02:23:10;;;;;;;;;;;19.60;74.60;;;;;;5083921;27;43274;-74
2023/05/15 02:25:54;;;;;;;;;;;19.50;74.60;;;;;;5098389;27;43411;-74
2023/05/15 02:28:23;;;;;;;;;;;19.50;72.20;;;;;;5094987;27;43982;-75
2023/05/15 02:30:54;;;;;;;;;;;19.70;74.80;;;;;;5086918;27;43000;-74
2023/05/15 02:33:42;;;;;;;;;;;19.70;75.20;;;;;;5076761;28;45445;-75
2023/05/15 02:36:10;;;;;;;;;;;19.70;74.80;;;;;;5083701;27;43198;-74
2023/05/15 02:39:02;;;;;;;;;;;19.80;75.10;;;;;;5085132;27;43762;-75
2023/05/15 02:41:30;;;;;;;;;;;19.70;75.10;;;;;;5088888;27;42878;-75
2023/05/15 02:43:55;;;;;;;;;;;19.60;75.50;;;;;;5104803;27;44403;-75
2023/05/15 02:46:23;;;;;;;;;;;19.60;75.10;;;;;;5101481;27;42990;-74
2023/05/15 02:48:49;;;;;;;;;;;19.60;75.00;;;;;;5092763;27;43053;-75
2023/05/15 02:51:14;;;;;;;;;;;19.60;75.60;;;;;;5087471;27;42834;-75
2023/05/15 02:53:40;;;;;;;;;;;19.70;75.90;;;;;;5093995;27;42994;-75
2023/05/15 02:56:06;;;;;;;;;;;19.60;75.40;;;;;;5086668;27;43086;-74
2023/05/15 02:58:32;;;;;;;;;;;19.70;75.90;;;;;;5083777;27;43040;-74
2023/05/15 03:00:58;;;;;;;;;;;20.10;76.20;;;;;;5083545;27;43029;-73
2023/05/15 03:03:23;;;;;;;;;;;19.60;75.60;;;;;;5083351;27;42984;-74
2023/05/15 03:05:49;;;;;;;;;;;19.70;75.70;;;;;;5086999;27;43006;-74
2023/05/15 03:08:14;;;;;;;;;;;19.80;75.70;;;;;;5093531;27;43368;-74
2023/05/15 03:10:40;;;;;;;;;;;19.80;75.50;;;;;;5086711;27;43079;-74
2023/05/15 03:13:05;;;;;;;;;;;19.40;75.70;;;;;;5103986;27;43004;-73
2023/05/15 03:15:31;;;;;;;;;;;19.70;75.60;;;;;;5088901;27;42998;-74
2023/05/15 03:17:56;;;;;;;;;;;19.70;75.40;;;;;;5096265;27;42962;-74
2023/05/15 03:20:22;;;;;;;;;;;19.80;75.90;;;;;;5082882;27;43204;-74
2023/05/15 03:22:48;;;;;;;;;;;19.50;76.10;;;;;;5073340;27;43680;-75
2023/05/15 03:25:13;;;;;;;;;;;19.80;75.60;;;;;;5089447;27;42912;-75
2023/05/15 03:27:39;;;;;;;;;;;19.60;75.40;;;;;;5082951;27;43385;-75
2023/05/15 03:30:04;;;;;;;;;;;19.60;76.20;;;;;;5084122;27;43012;-75
2023/05/15 03:32:30;;;;;;;;;;;19.60;75.50;;;;;;5084230;27;42902;-74
2023/05/15 03:34:55;;;;;;;;;;;19.70;75.70;;;;;;5085155;27;43033;-74
2023/05/15 03:37:21;;;;;;;;;;;19.70;76.00;;;;;;5083508;27;43788;-75
2023/05/15 03:39:46;;;;;;;;;;;19.60;76.00;;;;;;5084118;27;43447;-74
2023/05/15 03:42:12;;;;;;;;;;;19.70;75.80;;;;;;5065523;28;44790;-74
2023/05/15 03:44:37;;;;;;;;;;;19.70;75.70;;;;;;5079210;27;43885;-74
2023/05/15 03:47:03;;;;;;;;;;;19.60;75.60;;;;;;5095217;27;43181;-75
2023/05/15 03:49:28;;;;;;;;;;;19.70;75.60;;;;;;5083277;27;43076;-75
2023/05/15 03:51:55;;;;;;;;;;;19.60;75.50;;;;;;5083310;27;43411;-74
2023/05/15 03:54:22;;;;;;;;;;;19.70;76.20;;;;;;5082613;27;42990;-75
2023/05/15 03:56:47;;;;;;;;;;;19.70;75.70;;;;;;5082456;27;43905;-74
2023/05/15 03:59:13;;;;;;;;;;;19.70;75.70;;;;;;5096808;27;42853;-74
2023/05/15 04:01:38;;;;;;;;;;;19.60;76.00;;;;;;5099140;27;42828;-74
2023/05/15 04:04:04;;;;;;;;;;;19.40;76.00;;;;;;5098012;27;43100;-73
2023/05/15 04:06:30;;;;;;;;;;;19.90;76.10;;;;;;5101474;27;43008;-75
2023/05/15 04:08:55;;;;;;;;;;;19.60;75.90;;;;;;5101296;27;43002;-74
2023/05/15 04:11:21;;;;;;;;;;;19.70;75.60;;;;;;5107166;27;43658;-73
2023/05/15 04:13:47;;;;;;;;;;;19.40;75.90;;;;;;5101171;27;43228;-75
2023/05/15 04:16:13;;;;;;;;;;;19.70;76.20;;;;;;5106344;27;43570;-76
2023/05/15 04:18:39;;;;;;;;;;;19.50;75.70;;;;;;5106139;27;42906;-76
2023/05/15 04:21:04;;;;;;;;;;;19.70;75.80;;;;;;5099765;27;43994;-78
2023/05/15 04:23:30;;;;;;;;;;;19.60;75.90;;;;;;5086561;27;43102;-77
2023/05/15 04:25:55;;;;;;;;;;;19.50;76.30;;;;;;5085480;27;43730;-76
2023/05/15 04:28:21;;;;;;;;;;;19.60;76.10;;;;;;5086404;27;43994;-76
2023/05/15 04:30:46;;;;;;;;;;;19.80;76.30;;;;;;5086597;27;43910;-75
2023/05/15 04:33:12;;;;;;;;;;;19.80;76.20;;;;;;5085995;27;43014;-76
2023/05/15 04:35:38;;;;;;;;;;;19.70;76.10;;;;;;5094017;27;42920;-75
2023/05/15 04:38:03;;;;;;;;;;;19.60;76.00;;;;;;5093497;27;42810;-75
2023/05/15 04:40:29;;;;;;;;;;;19.60;76.20;;;;;;5099243;27;43256;-76
2023/05/15 04:42:54;;;;;;;;;;;19.40;76.10;;;;;;5085892;27;42840;-76
2023/05/15 04:45:20;;;;;;;;;;;19.70;76.30;;;;;;5086541;27;42835;-76
2023/05/15 04:47:45;;;;;;;;;;;19.70;76.60;;;;;;5085440;27;42847;-75
2023/05/15 04:50:11;;;;;;;;;;;19.60;76.40;;;;;;5073117;27;43233;-75
2023/05/15 04:52:36;;;;;;;;;;;19.70;76.60;;;;;;5098143;27;43410;-76
2023/05/15 04:55:02;;;;;;;;;;;19.50;76.80;;;;;;5091795;27;42968;-76
2023/05/15 04:57:28;;;;;;;;;;;19.80;76.50;;;;;;5098201;27;43013;-75
2023/05/15 04:59:53;;;;;;;;;;;19.60;77.00;;;;;;5096299;27;43900;-76
2023/05/15 05:02:22;;;;;;;;;;;19.50;76.80;;;;;;5095640;27;42997;-76
2023/05/15 05:04:48;;;;;;;;;;;19.60;76.60;;;;;;5089323;27;43547;-75
2023/05/15 05:07:14;;;;;;;;;;;19.50;77.10;;;;;;5086660;27;43088;-76
2023/05/15 05:09:40;;;;;;;;;;;19.60;76.60;;;;;;5094312;27;44300;-75
2023/05/15 05:12:06;;;;;;;;;;;19.60;77.00;;;;;;5095658;27;43242;-76
2023/05/15 05:14:32;;;;;;;;;;;19.60;76.50;;;;;;5094898;27;45101;-75
2023/05/15 05:16:57;;;;;;;;;;;19.60;76.90;;;;;;5090344;27;43045;-75
2023/05/15 05:19:23;;;;;;;;;;;19.60;76.70;;;;;;5097226;27;43156;-76
2023/05/15 05:21:48;;;;;;;;;;;19.60;76.70;;;;;;5097882;27;43013;-76
2023/05/15 05:24:14;;;;;;;;;;;19.60;76.70;;;;;;5098338;27;43404;-76
2023/05/15 05:26:42;;;;;;;;;;;19.70;77.30;;;;;;5094912;27;43099;-75
2023/05/15 05:29:07;;;;;;;;;;;19.70;76.70;;;;;;5089156;27;43675;-76
2023/05/15 05:31:33;;;;;;;;;;;19.60;77.30;;;;;;5091634;27;42991;-75
2023/05/15 05:33:58;;;;;;;;;;;19.70;76.70;;;;;;5099170;27;42971;-75
2023/05/15 05:36:24;;;;;;;;;;;19.80;76.80;;;;;;5090781;27;43576;-76
2023/05/15 05:38:49;;;;;;;;;;;19.60;77.10;;;;;;5096152;27;43549;-75
2023/05/15 05:41:15;;;;;;;;;;;19.60;76.90;;;;;;5074056;27;42978;-74
2023/05/15 05:43:44;;;;;;;;;;;19.60;76.80;;;;;;5093742;27;43371;-75
2023/05/15 05:46:09;;;;;;;;;;;19.50;76.70;;;;;;5095366;27;42982;-75
2023/05/15 05:48:35;;;;;;;;;;;19.60;77.00;;;;;;5092917;27;43605;-77
2023/05/15 05:51:01;;;;;;;;;;;19.60;77.40;;;;;;5101568;27;42976;-75
2023/05/15 05:53:26;;;;;;;;;;;19.60;77.00;;;;;;5097600;27;43974;-75
2023/05/15 05:55:52;;;;;;;;;;;19.70;77.20;;;;;;5086978;27;43083;-75
2023/05/15 05:58:18;;;;;;;;;;;19.70;77.80;;;;;;5087733;27;42930;-74
2023/05/15 06:00:44;;;;;;;;;;;19.70;77.20;;;;;;5096312;27;42944;-79
2023/05/15 06:03:10;;;;;;;;;;;19.70;77.10;;;;;;5100419;27;44010;-76
2023/05/15 06:05:35;;;;;;;;;;;19.70;77.10;;;;;;5101163;27;42978;-78
2023/05/15 06:08:03;;;;;;;;;;;19.70;77.40;;;;;;5098858;27;43032;-75
2023/05/15 06:10:28;;;;;;;;;;;19.70;77.00;;;;;;5092354;27;43128;-74
2023/05/15 06:12:54;;;;;;;;;;;19.50;77.00;;;;;;5091768;27;43928;-76
2023/05/15 06:15:19;;;;;;;;;;;19.70;77.10;;;;;;5099892;27;42827;-75
2023/05/15 06:17:45;;;;;;;;;;;19.80;77.20;;;;;;5091711;27;43452;-76
2023/05/15 06:20:10;;;;;;;;;;;19.60;77.50;;;;;;5092197;27;43340;-74
2023/05/15 06:22:36;;;;;;;;;;;19.70;77.00;;;;;;5084746;27;43425;-75
2023/05/15 06:25:03;;;;;;;;;;;19.70;77.40;;;;;;5099063;27;43083;-75
2023/05/15 06:27:29;;;;;;;;;;;19.20;77.10;;;;;;5105545;27;43692;-75
2023/05/15 06:29:55;;;;;;;;;;;19.70;77.20;;;;;;5104156;27;43030;-75
2023/05/15 06:32:20;;;;;;;;;;;19.60;77.10;;;;;;5104581;27;43349;-76
2023/05/15 06:34:46;;;;;;;;;;;19.50;77.10;;;;;;5105135;27;43061;-74
2023/05/15 06:37:11;;;;;;;;;;;19.60;77.50;;;;;;5101622;27;43657;-76
2023/05/15 06:39:37;;;;;;;;;;;19.70;77.30;;;;;;5086249;27;42975;-78
2023/05/15 06:42:02;;;;;;;;;;;19.60;77.80;;;;;;5084309;27;43677;-78
2023/05/15 06:44:29;;;;;;;;;;;19.60;77.60;;;;;;5094179;27;42997;-75
2023/05/15 06:46:55;;;;;;;;;;;19.60;78.00;;;;;;5100857;27;43499;-74
2023/05/15 06:49:20;;;;;;;;;;;19.50;78.00;;;;;;5086851;27;42954;-75
2023/05/15 06:51:46;;;;;;;;;;;19.60;77.90;;;;;;5090018;27;43388;-75
2023/05/15 06:54:11;;;;;;;;;;;19.60;77.50;;;;;;5093649;27;43199;-73
2023/05/15 06:56:37;;;;;;;;;;;19.60;77.50;;;;;;5089143;27;42920;-75
2023/05/15 06:59:02;;;;;;;;;;;19.50;77.40;;;;;;5094013;27;42978;-75
2023/05/15 07:01:30;;;;;;;;;;;19.50;77.90;;;;;;5089354;27;43465;-74
2023/05/15 07:03:55;;;;;;;;;;;19.50;77.90;;;;;;5089490;27;42985;-75
2023/05/15 07:06:21;;;;;;;;;;;19.50;77.90;;;;;;5100272;27;43087;-75
2023/05/15 07:08:46;;;;;;;;;;;19.70;78.10;;;;;;5095449;27;43258;-76
2023/05/15 07:11:12;;;;;;;;;;;19.40;77.90;;;;;;5091892;27;42859;-74
2023/05/15 07:13:37;;;;;;;;;;;19.60;78.30;;;;;;5087002;27;42924;-75
2023/05/15 07:16:03;;;;;;;;;;;19.50;78.30;;;;;;5091260;27;44670;-75
2023/05/15 07:18:28;;;;;;;;;;;19.50;78.00;;;;;;5098037;27;43014;-74
2023/05/15 07:20:54;;;;;;;;;;;19.60;78.60;;;;;;5085107;27;43981;-74
2023/05/15 07:23:19;;;;;;;;;;;19.60;78.80;;;;;;5084972;27;42926;-76
2023/05/15 07:25:45;;;;;;;;;;;19.80;78.60;;;;;;5091055;27;43085;-75
2023/05/15 07:28:10;;;;;;;;;;;19.60;78.00;;;;;;5091623;27;42931;-75
2023/05/15 07:30:36;;;;;;;;;;;19.60;78.10;;;;;;5091162;27;43623;-75
2023/05/15 07:33:02;;;;;;;;;;;19.70;78.60;;;;;;5091998;27;43000;-74
2023/05/15 07:35:27;;;;;;;;;;;19.60;78.40;;;;;;5106555;27;43430;-75
2023/05/15 07:37:53;;;;;;;;;;;19.70;78.20;;;;;;5107593;27;42894;-74
2023/05/15 07:40:18;;;;;;;;;;;19.70;78.20;;;;;;5097749;27;43462;-75
2023/05/15 07:42:44;;;;;;;;;;;19.70;78.50;;;;;;5095114;27;43059;-75
2023/05/15 07:45:09;;;;;;;;;;;19.70;78.00;;;;;;5091246;27;43481;-77
2023/05/15 07:47:35;;;;;;;;;;;19.70;78.50;;;;;;5103360;27;43013;-75
2023/05/15 07:50:01;;;;;;;;;;;19.60;78.60;;;;;;5104529;27;43558;-75
2023/05/15 07:52:26;;;;;;;;;;;19.40;78.40;;;;;;5103286;27;42956;-75
2023/05/15 07:54:52;;;;;;;;;;;19.60;78.90;;;;;;5106003;27;43095;-77
2023/05/15 07:57:17;;;;;;;;;;;19.70;78.20;;;;;;5076546;28;42940;-76
2023/05/15 07:59:43;;;;;;;;;;;19.60;78.60;;;;;;5100561;27;43026;-76
2023/05/15 08:02:08;;;;;;;;;;;19.70;78.10;;;;;;5105400;27;42969;-75
2023/05/15 08:04:34;;;;;;;;;;;19.60;78.30;;;;;;5105707;27;42960;-76
2023/05/15 08:06:59;;;;;;;;;;;19.70;78.60;;;;;;5097542;27;43012;-76
2023/05/15 08:09:25;;;;;;;;;;;19.70;78.10;;;;;;5093956;27;44139;-77
2023/05/15 08:11:50;;;;;;;;;;;19.60;78.80;;;;;;5106049;27;42970;-75
2023/05/15 08:14:16;;;;;;;;;;;19.70;78.30;;;;;;5085102;27;43866;-75
2023/05/15 08:16:41;;;;;;;;;;;20.00;79.00;;;;;;5105146;27;43076;-80
2023/05/15 08:19:09;;;;;;;;;;;19.70;78.40;;;;;;5102122;27;43848;-76
2023/05/15 08:21:34;;;;;;;;;;;19.60;78.30;;;;;;5106833;27;43014;-75
2023/05/15 08:24:00;;;;;;;;;;;19.50;78.80;;;;;;5099569;27;44323;-76
2023/05/15 08:26:25;;;;;;;;;;;19.80;78.20;;;;;;5096658;27;42990;-76
2023/05/15 08:28:51;;;;;;;;;;;19.60;76.70;;;;;;5099332;27;43157;-78
2023/05/15 08:31:16;;;;;;;;;;;19.80;78.00;;;;;;5093605;27;42858;-76
2023/05/15 08:33:42;;;;;;;;;;;19.70;77.00;;;;;;5081954;27;46091;-76
2023/05/15 08:36:07;;;;;;;;;;;19.70;75.80;;;;;;5094953;27;43691;-81
2023/05/15 08:38:33;;;;;;;;;;;19.80;75.90;;;;;;5086528;27;43705;-77
2023/05/15 08:41:05;;;;;;;;;;;19.80;75.10;;;;;;5097228;27;43457;-76
2023/05/15 08:43:34;;;;;;;;;;;19.80;74.90;;;;;;5089159;27;43110;-76
2023/05/15 08:46:00;;;;;;;;;;;19.70;75.80;;;;;;5096227;27;43041;-77
2023/05/15 08:48:28;;;;;;;;;;;19.80;75.00;;;;;;5102759;27;43527;-79
2023/05/15 08:50:54;;;;;;;;;;;19.80;74.50;;;;;;5102437;27;43052;-76
2023/05/15 08:53:20;;;;;;;;;;;19.90;72.30;;;;;;5103767;27;43639;-77
2023/05/15 08:55:45;;;;;;;;;;;19.60;72.90;;;;;;5105158;27;43038;-77
2023/05/15 08:58:11;;;;;;;;;;;19.70;72.00;;;;;;5102657;27;43447;-76
2023/05/15 09:00:37;;;;;;;;;;;19.70;72.20;;;;;;5103823;27;43532;-79
2023/05/15 09:03:03;;;;;;;;;;;19.80;71.10;;;;;;5082939;27;43472;-77
2023/05/15 09:05:28;;;;;;;;;;;19.70;71.50;;;;;;5104402;27;42886;-76
2023/05/15 09:07:55;;;;;;;;;;;19.60;70.90;;;;;;5101013;27;42989;-77
2023/05/15 09:10:21;;;;;;;;;;;19.60;71.30;;;;;;5092046;27;42915;-78
2023/05/15 09:12:49;;;;;;;;;;;19.70;71.30;;;;;;5091492;27;43112;-77
2023/05/15 09:15:16;;;;;;;;;;;19.60;71.40;;;;;;5105108;27;42938;-77
2023/05/15 09:17:42;;;;;;;;;;;19.70;70.20;;;;;;5103460;27;43538;-77
2023/05/15 09:20:26;;;;;;;;;;;19.60;70.50;;;;;;5096847;27;43067;-77
2023/05/15 09:22:51;;;;;;;;;;;19.20;67.70;;;;;;5086116;27;43041;-75
2023/05/15 09:25:39;;;;;;;;;;;19.60;70.80;;;;;;5085954;27;42962;-78
2023/05/15 09:28:08;;;;;;;;;;;19.80;68.10;;;;;;5098561;27;43557;-77
2023/05/15 09:30:36;;;;;;;;;;;19.70;70.60;;;;;;5103027;27;43266;-77
2023/05/15 09:33:03;;;;;;;;;;;20.00;70.40;;;;;;5092327;27;42949;-76
2023/05/15 09:35:32;;;;;;;;;;;19.60;69.20;;;;;;5091520;27;43198;-78
2023/05/15 09:37:59;;;;;;;;;;;19.70;67.10;;;;;;5099297;27;43507;-78
2023/05/15 09:40:27;;;;;;;;;;;19.60;69.90;;;;;;5106042;27;43084;-77
2023/05/15 09:42:53;;;;;;;;;;;19.70;69.40;;;;;;5105162;27;42933;-78
2023/05/15 09:45:19;;;;;;;;;;;19.60;69.30;;;;;;5104923;27;43120;-77
2023/05/15 09:47:45;;;;;;;;;;;19.60;68.90;;;;;;5103791;27;43576;-77
2023/05/15 09:50:10;;;;;;;;;;;19.80;69.60;;;;;;5101012;27;42832;-80
2023/05/15 09:52:36;;;;;;;;;;;19.80;68.70;;;;;;5088437;27;42947;-79
2023/05/15 09:55:01;;;;;;;;;;;19.70;68.70;;;;;;5087670;27;42945;-76
2023/05/15 09:57:27;;;;;;;;;;;19.80;68.80;;;;;;5087691;27;42922;-78
2023/05/15 09:59:52;;;;;;;;;;;19.60;69.00;;;;;;5096886;27;42953;-78
2023/05/15 10:02:29;;;;;;;;;;;20.00;68.50;;;;;;5087446;27;42968;-75
2023/05/15 10:04:55;;;;;;;;;;;19.80;68.40;;;;;;5066684;27;42919;-77
2023/05/15 10:07:31;;;;;;;;;;;19.60;68.60;;;;;;5088286;27;43564;-77
2023/05/15 10:09:56;;;;;;;;;;;19.70;67.90;;;;;;5086376;27;42800;-76
2023/05/15 10:12:22;;;;;;;;;;;19.50;68.00;;;;;;5086623;27;42952;-76
2023/05/15 10:14:49;;;;;;;;;;;19.60;68.80;;;;;;5092547;27;43041;-76
2023/05/15 10:17:15;;;;;;;;;;;19.60;68.30;;;;;;5093627;27;44581;-76
2023/05/15 10:19:41;;;;;;;;;;;19.60;68.30;;;;;;5103845;27;42997;-77
2023/05/15 10:22:08;;;;;;;;;;;19.60;67.70;;;;;;5104827;27;42949;-76
2023/05/15 10:24:35;;;;;;;;;;;19.60;68.10;;;;;;5095450;27;42934;-78
2023/05/15 10:27:01;;;;;;;;;;;19.50;68.50;;;;;;5099640;27;43734;-77
2023/05/15 10:29:29;;;;;;;;;;;17.40;66.80;;;;;;5104305;27;43049;-77
2023/05/15 10:31:56;;;;;;;;;;;19.70;67.80;;;;;;5100708;27;43857;-78
2023/05/15 10:34:22;;;;;;;;;;;19.80;67.90;;;;;;5093179;27;42943;-76
2023/05/15 10:36:48;;;;;;;;;;;19.60;67.90;;;;;;5090219;27;43072;-78
2023/05/15 10:39:15;;;;;;;;;;;19.50;67.40;;;;;;5094534;27;43024;-79
2023/05/15 10:41:41;;;;;;;;;;;19.60;67.20;;;;;;5084573;27;43071;-77
2023/05/15 10:44:07;;;;;;;;;;;19.70;67.10;;;;;;5084483;27;42997;-76
2023/05/15 10:46:33;;;;;;;;;;;19.70;66.60;;;;;;5097075;27;43008;-78
2023/05/15 10:49:00;;;;;;;;;;;19.70;67.00;;;;;;5084325;27;42917;-76
2023/05/15 10:51:27;;;;;;;;;;;19.60;67.30;;;;;;5087344;27;43300;-76
2023/05/15 10:53:53;;;;;;;;;;;19.60;67.10;;;;;;5094107;27;42922;-77
2023/05/15 10:56:18;;;;;;;;;;;19.70;67.00;;;;;;5088746;27;44109;-77
2023/05/15 10:58:50;;;;;;;;;;;19.80;67.40;;;;;;5105157;27;42980;-77
2023/05/15 11:01:26;;;;;;;;;;;19.80;65.00;;;;;;5089602;27;43001;-76
2023/05/15 11:04:03;;;;;;;;;;;19.80;66.70;;;;;;5093581;27;42890;-77
2023/05/15 11:06:32;;;;;;;;;;;19.60;66.70;;;;;;5097103;27;43091;-79
2023/05/15 11:09:17;;;;;;;;;;;19.60;66.70;;;;;;5077160;27;42932;-79
2023/05/15 11:11:51;;;;;;;;;;;19.60;64.60;;;;;;5093209;27;44080;-78
2023/05/15 11:14:17;;;;;;;;;;;19.60;64.80;;;;;;5098429;27;43259;-79
2023/05/15 11:16:51;;;;;;;;;;;19.70;66.90;;;;;;5099285;27;43577;-75
2023/05/15 11:19:28;;;;;;;;;;;19.70;64.80;;;;;;5089175;27;60798;-76
2023/05/15 11:22:03;;;;;;;;;;;19.60;64.90;;;;;;5094809;27;43032;-78
2023/05/15 11:24:30;;;;;;;;;;;19.80;64.80;;;;;;5086506;27;43013;-77
2023/05/15 11:26:59;;;;;;;;;;;19.70;67.50;;;;;;5088364;27;43584;-78
2023/05/15 11:29:25;;;;;;;;;;;19.40;64.50;;;;;;5090958;27;43902;-81
2023/05/15 11:31:50;;;;;;;;;;;19.70;67.50;;;;;;5086620;27;43028;-78
2023/05/15 11:34:27;;;;;;;;;;;19.70;67.30;;;;;;5089873;27;43702;-77
2023/05/15 11:36:53;;;;;;;;;;;19.50;67.70;;;;;;5094558;27;43584;-78
2023/05/15 11:39:22;;;;;;;;;;;19.50;67.50;;;;;;5091548;27;44596;-78
2023/05/15 11:41:48;;;;;;;;;;;19.50;67.10;;;;;;5093833;27;43591;-77
2023/05/15 11:44:18;;;;;;;;;;;19.60;67.40;;;;;;5103928;27;43277;-77
2023/05/15 11:46:44;;;;;;;;;;;19.50;67.50;;;;;;5087077;27;43778;-77
2023/05/15 11:49:10;;;;;;;;;;;19.70;67.20;;;;;;5093500;27;43146;-77
2023/05/15 11:51:41;;;;;;;;;;;19.40;67.10;;;;;;5085561;27;44872;-78
2023/05/15 11:54:09;;;;;;;;;;;19.70;66.90;;;;;;5082959;27;42977;-78
2023/05/15 11:56:34;;;;;;;;;;;19.70;66.50;;;;;;5076334;27;44129;-76
2023/05/15 11:59:01;;;;;;;;;;;19.60;66.80;;;;;;5101843;27;42901;-77
2023/05/15 12:01:28;;;;;;;;;;;19.70;66.40;;;;;;5101243;27;43035;-78
2023/05/15 12:03:54;;;;;;;;;;;19.70;66.60;;;;;;5092661;27;43131;-78
2023/05/15 12:06:19;;;;;;;;;;;19.40;66.40;;;;;;5087520;27;43511;-81
2023/05/15 12:08:50;;;;;;;;;;;19.70;66.20;;;;;;5095467;27;42949;-77
2023/05/15 12:11:16;;;;;;;;;;;19.60;66.00;;;;;;5078192;27;44324;-80
2023/05/15 12:13:41;;;;;;;;;;;19.60;65.90;;;;;;5095319;27;42917;-77
2023/05/15 12:16:07;;;;;;;;;;;19.50;65.70;;;;;;5094636;27;42941;-76
2023/05/15 12:18:33;;;;;;;;;;;19.70;65.90;;;;;;5094856;27;43193;-77
2023/05/15 12:20:58;;;;;;;;;;;19.70;65.90;;;;;;5083954;27;43758;-75
2023/05/15 12:23:25;;;;;;;;;;;19.50;65.90;;;;;;5086458;27;42829;-75
2023/05/15 12:25:53;;;;;;;;;;;19.60;66.50;;;;;;5092977;27;42980;-76
2023/05/15 12:28:19;;;;;;;;;;;19.60;65.40;;;;;;5092401;27;42957;-79
2023/05/15 12:30:45;;;;;;;;;;;19.60;66.20;;;;;;5095958;27;43036;-79
2023/05/15 12:33:11;;;;;;;;;;;19.60;65.40;;;;;;5103882;27;43004;-78
2023/05/15 12:35:40;;;;;;;;;;;19.80;65.90;;;;;;5091161;27;42997;-79
2023/05/15 12:38:07;;;;;;;;;;;19.70;65.60;;;;;;5107164;27;42803;-80
2023/05/15 12:40:32;;;;;;;;;;;19.60;65.70;;;;;;5083340;27;44541;-76
2023/05/15 12:42:58;;;;;;;;;;;19.70;66.40;;;;;;5106277;27;43080;-75
2023/05/15 12:45:25;;;;;;;;;;;19.30;66.00;;;;;;5106135;27;43275;-74
2023/05/15 12:47:50;;;;;;;;;;;19.70;65.70;;;;;;5092227;27;44288;-75
2023/05/15 12:50:22;;;;;;;;;;;19.70;66.30;;;;;;5096327;27;43647;-76
2023/05/15 12:52:50;;;;;;;;;;;19.60;63.40;;;;;;5099430;27;43192;-75
2023/05/15 12:55:16;;;;;;;;;;;20.10;65.60;;;;;;5084299;27;44588;-75
2023/05/15 12:57:42;;;;;;;;;;;19.80;66.10;;;;;;5102329;27;43244;-76
2023/05/15 13:00:12;;;;;;;;;;;19.70;65.90;;;;;;5106464;27;42800;-75
2023/05/15 13:02:38;;;;;;;;;;;19.60;65.00;;;;;;5092862;27;42989;-75
2023/05/15 13:05:03;;;;;;;;;;;19.80;65.30;;;;;;5105959;27;42962;-75
2023/05/15 13:07:29;;;;;;;;;;;19.60;64.90;;;;;;5097279;27;42997;-76
2023/05/15 13:10:04;;;;;;;;;;;19.70;65.70;;;;;;5105880;27;43105;-76
2023/05/15 13:12:41;;;;;;;;;;;19.60;62.50;;;;;;5090665;27;43115;-75
2023/05/15 13:15:06;;;;;;;;;;;19.70;62.70;;;;;;5102547;27;43675;-75
2023/05/15 13:17:38;;;;;;;;;;;19.70;64.70;;;;;;5101212;27;42928;-75
2023/05/15 13:20:04;;;;;;;;;;;19.60;63.50;;;;;;5105651;27;43476;-76
2023/05/15 13:22:30;;;;;;;;;;;19.70;64.90;;;;;;5103814;27;43195;-76
2023/05/15 13:24:57;;;;;;;;;;;19.60;65.10;;;;;;5103762;27;43537;-76
2023/05/15 13:27:23;;;;;;;;;;;19.60;65.40;;;;;;5096242;27;43053;-76
2023/05/15 13:29:48;;;;;;;;;;;19.60;64.70;;;;;;5104941;27;42989;-75
2023/05/15 13:32:14;;;;;;;;;;;19.50;65.30;;;;;;5091299;27;43247;-75
2023/05/15 13:34:39;;;;;;;;;;;19.70;64.90;;;;;;5098244;27;43057;-75
2023/05/15 13:37:05;;;;;;;;;;;19.70;65.10;;;;;;5098675;27;42916;-78
2023/05/15 13:39:31;;;;;;;;;;;19.50;65.60;;;;;;5085235;27;43701;-76
2023/05/15 13:41:57;;;;;;;;;;;19.70;65.60;;;;;;5102138;27;42976;-76
2023/05/15 13:44:22;;;;;;;;;;;19.70;64.90;;;;;;5092371;27;43047;-76
2023/05/15 13:46:48;;;;;;;;;;;19.70;65.00;;;;;;5098140;27;42977;-77
2023/05/15 13:49:13;;;;;;;;;;;19.80;65.20;;;;;;5087220;27;43813;-75
2023/05/15 13:51:39;;;;;;;;;;;19.70;65.30;;;;;;5086732;27;43577;-75
2023/05/15 13:54:04;;;;;;;;;;;19.60;65.40;;;;;;5099780;27;43244;-76
2023/05/15 13:56:30;;;;;;;;;;;19.70;65.50;;;;;;5094697;27;42982;-76
2023/05/15 13:58:55;;;;;;;;;;;19.70;65.00;;;;;;5090458;27;42925;-75
2023/05/15 14:01:21;;;;;;;;;;;19.60;65.40;;;;;;5075769;27;43506;-76
2023/05/15 14:03:46;;;;;;;;;;;19.80;64.90;;;;;;5101011;27;43075;-75
2023/05/15 14:06:12;;;;;;;;;;;19.70;65.30;;;;;;5093754;27;43007;-76
2023/05/15 14:08:37;;;;;;;;;;;19.70;64.30;;;;;;5083707;27;42962;-75
2023/05/15 14:11:03;;;;;;;;;;;19.70;64.50;;;;;;5096265;27;43049;-75
2023/05/15 14:13:30;;;;;;;;;;;19.80;64.70;;;;;;5093940;27;43172;-75